Terminal Aerodrome Forecast
Issued by NWS

Home | Current Version | Previous Version | Text Only | Print | Product List | Glossary On
Versions: 1 2 3 4 5 6 7 8 9 10 11 12 13 14 15
636
FTAK31 PAJN 272326
TAFAPG
TAF
PAPG 272326Z 2800/2824 12008KT 6SM -RA BR BKN025 OVC035
     FM280400 VRB04KT 5SM -SHRA BR BKN015 OVC025
     FM281000 VRB03KT P6SM BCFG SCT005 BKN045
      TEMPO 2811/2815 1SM BR BKN003
     FM281800 07005KT P6SM BKN050 OVC120
      AMD LTD TO CLD VIS AND WIND 2806/2815=

USA.gov is the U.S. government's official web portal to all federal, state and local government web resources and services.